createdAt,value
2022-10-12T00:00:35.978Z,99.79
2022-10-12T00:01:35.996Z,99.88
2022-10-12T00:02:35.987Z,99.99
2022-10-12T00:03:35.951Z,99.50
2022-10-12T00:04:35.950Z,99.88
2022-10-12T00:05:35.958Z,99.88
2022-10-12T00:06:35.949Z,99.60
2022-10-12T00:07:36.341Z,99.79
2022-10-12T00:08:35.965Z,99.22
2022-10-12T00:09:35.936Z,98.83
2022-10-12T00:10:35.997Z,99.02
2022-10-12T00:11:35.954Z,99.12
2022-10-12T00:12:35.957Z,98.65
2022-10-12T00:13:35.931Z,98.17
2022-10-12T00:14:35.935Z,98.55
2022-10-12T00:15:35.930Z,98.17
2022-10-12T00:16:35.928Z,98.27
2022-10-12T00:17:36.211Z,98.36
2022-10-12T00:18:35.930Z,98.74
2022-10-12T00:19:35.937Z,98.93
2022-10-12T00:20:35.935Z,98.55
2022-10-12T00:21:35.933Z,98.65
2022-10-12T00:22:35.927Z,98.88
2022-10-12T00:23:35.936Z,98.74
2022-10-12T00:24:39.397Z,98.93
2022-10-12T00:25:35.925Z,98.69
2022-10-12T00:26:35.913Z,98.93
2022-10-12T00:27:36.226Z,98.41
2022-10-12T00:28:35.999Z,98.79
2022-10-12T00:29:35.925Z,98.60
2022-10-12T00:30:35.914Z,98.93
2022-10-12T00:31:35.914Z,99.22
2022-10-12T00:32:35.895Z,98.88
2022-10-12T00:33:35.907Z,98.79
2022-10-12T00:34:35.936Z,98.60
2022-10-12T00:35:35.910Z,98.88
2022-10-12T00:36:36.053Z,98.50
2022-10-12T00:37:36.243Z,98.22
2022-10-12T00:38:35.884Z,98.12
2022-10-12T00:39:35.925Z,98.12
2022-10-12T00:40:35.897Z,98.22
2022-10-12T00:41:35.883Z,98.41
2022-10-12T00:42:35.897Z,98.88
2022-10-12T00:43:35.911Z,99.07
2022-10-12T00:44:35.888Z,99.07
2022-10-12T00:45:35.883Z,98.97
2022-10-12T00:46:35.883Z,98.88
2022-10-12T00:47:36.185Z,98.88
2022-10-12T00:48:35.904Z,98.69
2022-10-12T00:49:35.869Z,98.88
2022-10-12T00:50:35.867Z,99.07
2022-10-12T00:51:35.900Z,98.88
2022-10-12T00:52:35.867Z,98.69
2022-10-12T00:53:35.876Z,99.26
2022-10-12T00:54:35.896Z,99.16
2022-10-12T00:55:35.865Z,99.26
2022-10-12T00:56:35.857Z,98.97
2022-10-12T00:57:36.093Z,99.11
2022-10-12T00:58:35.862Z,99.78
2022-10-12T00:59:35.876Z,99.97
2022-10-12T01:00:35.922Z,99.99
2022-10-12T01:01:35.850Z,99.99
2022-10-12T01:02:35.883Z,99.99
2022-10-12T01:03:35.854Z,99.99
2022-10-12T01:04:35.854Z,99.99
2022-10-12T01:05:35.851Z,99.99
2022-10-12T01:06:35.845Z,99.99
2022-10-12T01:07:36.125Z,99.99
2022-10-12T01:08:35.879Z,99.99
2022-10-12T01:09:35.850Z,99.99
2022-10-12T01:10:35.835Z,99.99
2022-10-12T01:11:35.823Z,99.99
2022-10-12T01:12:35.832Z,99.99
2022-10-12T01:13:35.836Z,99.99
2022-10-12T01:14:35.841Z,99.99
2022-10-12T01:15:35.818Z,99.99
2022-10-12T01:16:35.830Z,99.99
2022-10-12T01:17:36.131Z,99.99
2022-10-12T01:18:35.817Z,99.99
2022-10-12T01:19:35.829Z,99.99
2022-10-12T01:20:35.823Z,99.99
2022-10-12T01:21:35.817Z,99.99
2022-10-12T01:22:35.815Z,99.99
2022-10-12T01:23:35.818Z,99.99
2022-10-12T01:24:35.839Z,99.99
2022-10-12T01:25:35.805Z,99.99
2022-10-12T01:26:35.789Z,99.99
2022-10-12T01:27:36.194Z,99.99
2022-10-12T01:28:35.848Z,99.99
2022-10-12T01:29:35.825Z,99.99
2022-10-12T01:30:35.789Z,99.99
2022-10-12T01:31:35.799Z,99.99
2022-10-12T01:32:35.791Z,99.99
2022-10-12T01:33:35.812Z,99.99
2022-10-12T01:34:35.792Z,99.99
2022-10-12T01:35:35.779Z,99.99
2022-10-12T01:36:35.773Z,99.99
2022-10-12T01:37:36.125Z,99.99
2022-10-12T01:38:35.772Z,99.99
2022-10-12T01:39:35.795Z,99.99
2022-10-12T01:40:35.767Z,99.99
2022-10-12T01:41:35.763Z,99.99
2022-10-12T01:42:35.772Z,99.99
2022-10-12T01:43:35.778Z,99.99
2022-10-12T01:44:39.256Z,99.99
2022-10-12T01:45:35.766Z,99.99
2022-10-12T01:46:35.764Z,99.99
2022-10-12T01:47:36.067Z,99.99
2022-10-12T01:48:35.835Z,99.99
2022-10-12T01:49:35.756Z,99.78
2022-10-12T01:50:35.755Z,99.99
2022-10-12T01:51:35.769Z,99.69
2022-10-12T01:52:35.743Z,99.40
2022-10-12T01:53:36.726Z,99.40
2022-10-12T01:54:35.761Z,99.99
2022-10-12T01:55:35.731Z,99.69
2022-10-12T01:56:35.744Z,99.78
2022-10-12T01:57:36.052Z,99.59
2022-10-12T01:58:35.740Z,99.21
2022-10-12T01:59:35.743Z,99.78
2022-10-12T02:00:35.738Z,99.50
2022-10-12T02:01:35.788Z,99.78
2022-10-12T02:02:35.736Z,99.97
2022-10-12T02:03:35.719Z,99.97
2022-10-12T02:04:35.726Z,99.99
2022-10-12T02:05:35.737Z,99.99
2022-10-12T02:06:35.738Z,99.99
2022-10-12T02:07:35.930Z,99.99
2022-10-12T02:08:35.718Z,99.99
2022-10-12T02:09:35.708Z,99.99
2022-10-12T02:10:35.741Z,99.40
2022-10-12T02:11:35.721Z,99.40
2022-10-12T02:12:35.711Z,99.78
2022-10-12T02:13:35.711Z,99.40
2022-10-12T02:14:35.703Z,99.40
2022-10-12T02:15:35.699Z,99.59
2022-10-12T02:16:35.704Z,99.99
2022-10-12T02:17:35.893Z,99.99
2022-10-12T02:18:35.714Z,99.69
2022-10-12T02:19:35.711Z,99.97
2022-10-12T02:20:35.680Z,99.99
2022-10-12T02:21:35.692Z,99.99
2022-10-12T02:22:35.696Z,99.99
2022-10-12T02:23:35.683Z,99.69
2022-10-12T02:24:35.673Z,99.40
2022-10-12T02:25:35.699Z,99.69
2022-10-12T02:26:35.673Z,98.83
2022-10-12T02:27:35.890Z,98.64
2022-10-12T02:28:35.779Z,98.83
2022-10-12T02:29:35.680Z,98.83
2022-10-12T02:30:35.674Z,98.64
2022-10-12T02:31:35.704Z,98.83
2022-10-12T02:32:35.656Z,98.64
2022-10-12T02:33:35.665Z,98.93
2022-10-12T02:34:35.666Z,99.30
2022-10-12T02:35:36.251Z,99.02
2022-10-12T02:36:35.671Z,98.64
2022-10-12T02:37:35.949Z,99.30
2022-10-12T02:38:35.657Z,99.50
2022-10-12T02:39:35.693Z,99.30
2022-10-12T02:40:35.659Z,98.83
2022-10-12T02:41:35.657Z,98.45
2022-10-12T02:42:58.473Z,98.74
2022-10-12T02:43:35.639Z,99.02
2022-10-12T02:44:35.634Z,98.83
2022-10-12T02:45:35.628Z,98.31
2022-10-12T02:46:35.646Z,98.40
2022-10-12T02:47:35.906Z,99.07
2022-10-12T02:48:35.632Z,99.07
2022-10-12T02:49:35.632Z,99.73
2022-10-12T02:50:35.620Z,98.69
2022-10-12T02:51:35.614Z,99.07
2022-10-12T02:52:35.622Z,98.88
2022-10-12T02:53:35.618Z,99.16
2022-10-12T02:54:35.607Z,98.88
2022-10-12T02:55:35.606Z,98.69
2022-10-12T02:56:35.620Z,98.79
2022-10-12T02:57:35.872Z,98.69
2022-10-12T02:58:35.598Z,99.07
2022-10-12T02:59:35.613Z,98.88
2022-10-12T03:00:35.609Z,99.26
2022-10-12T03:01:35.728Z,99.16
2022-10-12T03:02:35.625Z,99.16
2022-10-12T03:03:35.600Z,99.26
2022-10-12T03:04:35.599Z,99.16
2022-10-12T03:05:35.602Z,99.54
2022-10-12T03:06:35.590Z,99.54
2022-10-12T03:07:35.902Z,99.54
2022-10-12T03:08:35.614Z,99.99
2022-10-12T03:09:35.573Z,99.92
2022-10-12T03:10:35.584Z,99.99
2022-10-12T03:11:35.585Z,99.99
2022-10-12T03:12:35.594Z,99.99
2022-10-12T03:13:35.580Z,99.99
2022-10-12T03:14:35.576Z,99.99
2022-10-12T03:15:35.578Z,99.99
2022-10-12T03:16:35.577Z,99.99
2022-10-12T03:17:35.778Z,99.99
2022-10-12T03:18:35.566Z,99.99
2022-10-12T03:19:35.568Z,99.99
2022-10-12T03:20:35.563Z,99.99
2022-10-12T03:21:35.559Z,99.99
2022-10-12T03:22:35.560Z,99.99
2022-10-12T03:23:35.540Z,99.99
2022-10-12T03:24:35.576Z,99.73
2022-10-12T03:25:35.561Z,99.35
2022-10-12T03:26:35.563Z,99.54
2022-10-12T03:27:35.815Z,99.64
2022-10-12T03:28:35.628Z,99.16
2022-10-12T03:29:35.535Z,99.35
2022-10-12T03:30:35.560Z,99.92
2022-10-12T03:31:35.533Z,99.99
2022-10-12T03:32:35.536Z,99.99
2022-10-12T03:33:35.536Z,99.92
2022-10-12T03:34:35.525Z,99.99
2022-10-12T03:35:35.591Z,99.99
2022-10-12T03:36:35.515Z,99.92
2022-10-12T03:37:35.740Z,98.69
2022-10-12T03:38:35.508Z,98.59
2022-10-12T03:39:35.519Z,98.79
2022-10-12T03:40:35.506Z,98.31
2022-10-12T03:41:35.531Z,98.79
2022-10-12T03:42:35.521Z,99.07
2022-10-12T03:43:35.515Z,99.16
2022-10-12T03:44:35.498Z,99.44
2022-10-12T03:45:35.521Z,99.07
2022-10-12T03:46:35.500Z,98.59
2022-10-12T03:47:35.761Z,98.59
2022-10-12T03:48:35.489Z,98.73
2022-10-12T03:49:35.500Z,99.02
2022-10-12T03:50:35.492Z,99.44
2022-10-12T03:51:35.481Z,99.49
2022-10-12T03:52:35.509Z,99.54
2022-10-12T03:53:35.489Z,99.40
2022-10-12T03:54:35.473Z,99.87
2022-10-12T03:55:35.478Z,99.99
2022-10-12T03:56:35.467Z,99.99
2022-10-12T03:57:36.066Z,99.99
2022-10-12T03:58:35.479Z,99.99
2022-10-12T03:59:35.474Z,99.99
2022-10-12T04:00:35.462Z,99.99
2022-10-12T04:01:35.540Z,99.99
2022-10-12T04:02:35.467Z,99.99
2022-10-12T04:03:35.472Z,99.99
2022-10-12T04:04:35.448Z,99.99
2022-10-12T04:05:35.458Z,99.99
2022-10-12T04:06:35.472Z,99.99
2022-10-12T04:07:35.723Z,99.99
2022-10-12T04:08:35.437Z,99.99
2022-10-12T04:09:35.450Z,99.99
2022-10-12T04:10:35.437Z,99.99
2022-10-12T04:11:35.433Z,99.99
2022-10-12T04:12:35.440Z,99.99
2022-10-12T04:13:35.431Z,99.99
2022-10-12T04:14:35.434Z,99.99
2022-10-12T04:15:35.426Z,99.99
2022-10-12T04:16:35.428Z,99.99
2022-10-12T04:17:35.539Z,99.99
2022-10-12T04:18:35.416Z,99.99
2022-10-12T04:19:35.423Z,99.99
2022-10-12T04:20:35.423Z,99.99
2022-10-12T04:21:35.437Z,99.99
2022-10-12T04:22:35.406Z,99.99
2022-10-12T04:23:35.400Z,99.99
2022-10-12T04:24:35.415Z,99.99
2022-10-12T04:25:35.419Z,99.99
2022-10-12T04:26:35.404Z,99.99
2022-10-12T04:27:35.603Z,99.99
2022-10-12T04:28:35.475Z,99.99
2022-10-12T04:29:35.389Z,99.92
2022-10-12T04:30:35.387Z,99.97
2022-10-12T04:31:35.381Z,99.83
2022-10-12T04:32:35.398Z,99.99
2022-10-12T04:33:35.392Z,99.64
2022-10-12T04:34:35.379Z,99.07
2022-10-12T04:35:35.372Z,99.73
2022-10-12T04:36:35.392Z,99.40
2022-10-12T04:37:35.548Z,99.26
2022-10-12T04:38:35.379Z,99.73
2022-10-12T04:39:35.391Z,99.44
2022-10-12T04:40:35.375Z,99.64
2022-10-12T04:41:35.367Z,99.54
2022-10-12T04:42:35.368Z,98.97
2022-10-12T04:43:35.372Z,98.79
2022-10-12T04:44:35.363Z,98.21
2022-10-12T04:45:35.354Z,98.50
2022-10-12T04:46:35.349Z,99.11
2022-10-12T04:47:35.590Z,98.88
2022-10-12T04:48:35.363Z,98.97
2022-10-12T04:49:35.348Z,98.73
2022-10-12T04:50:35.341Z,98.83
2022-10-12T04:51:35.347Z,98.54
2022-10-12T04:52:35.338Z,98.83
2022-10-12T04:53:35.342Z,99.54
2022-10-12T04:54:35.369Z,99.54
2022-10-12T04:55:35.392Z,99.54
2022-10-12T04:56:35.334Z,99.40
2022-10-12T04:57:35.531Z,99.16
2022-10-12T04:58:35.338Z,99.40
2022-10-12T04:59:35.353Z,99.54
2022-10-12T05:00:35.319Z,99.54
2022-10-12T05:01:35.416Z,99.02
2022-10-12T05:02:35.317Z,99.02
2022-10-12T05:03:40.962Z,99.21
2022-10-12T05:05:35.337Z,99.97
2022-10-12T05:06:35.314Z,99.99
2022-10-12T05:07:35.533Z,99.99
2022-10-12T05:08:42.983Z,99.99
2022-10-12T05:09:35.304Z,99.99
2022-10-12T05:10:35.314Z,99.99
2022-10-12T05:11:35.285Z,99.99
2022-10-12T05:12:35.567Z,99.99
2022-10-12T05:13:35.303Z,99.99
2022-10-12T05:14:36.277Z,99.99
2022-10-12T05:15:35.284Z,99.99
2022-10-12T05:16:35.279Z,99.87
2022-10-12T05:17:35.494Z,99.30
2022-10-12T05:18:35.266Z,99.21
2022-10-12T05:19:35.269Z,98.54
2022-10-12T05:20:35.275Z,98.73
2022-10-12T05:21:35.319Z,98.73
2022-10-12T05:22:35.268Z,98.64
2022-10-12T05:23:35.279Z,99.02
2022-10-12T05:24:35.255Z,99.02
2022-10-12T05:25:35.283Z,99.40
2022-10-12T05:26:35.260Z,99.68
2022-10-12T05:27:35.469Z,99.97
2022-10-12T05:28:40.599Z,99.97
2022-10-12T05:29:35.258Z,99.87
2022-10-12T05:30:35.246Z,99.99
2022-10-12T05:31:35.238Z,99.68
2022-10-12T05:32:35.414Z,99.99
2022-10-12T05:33:35.248Z,99.99
2022-10-12T05:34:35.253Z,99.99
2022-10-12T05:35:35.233Z,99.99
2022-10-12T05:36:35.232Z,99.99
2022-10-12T05:37:35.409Z,99.99
2022-10-12T05:38:35.238Z,99.99
2022-10-12T05:39:35.233Z,99.99
2022-10-12T05:40:35.224Z,99.97
2022-10-12T05:41:35.234Z,99.97
2022-10-12T05:42:35.366Z,99.99
2022-10-12T05:43:35.231Z,99.87
2022-10-12T05:44:35.214Z,99.87
2022-10-12T05:45:35.200Z,99.49
2022-10-12T05:46:35.210Z,99.35
2022-10-12T05:47:35.523Z,99.99
2022-10-12T05:48:35.212Z,99.99
2022-10-12T05:49:35.205Z,99.99
2022-10-12T05:50:35.199Z,99.92
2022-10-12T05:51:35.199Z,99.92
2022-10-12T05:52:35.462Z,99.87
2022-10-12T05:53:35.192Z,99.99
2022-10-12T05:54:35.188Z,99.92
2022-10-12T05:55:35.184Z,99.99
2022-10-12T05:56:35.172Z,99.99
2022-10-12T05:57:35.186Z,99.99
2022-10-12T05:58:35.167Z,99.99
2022-10-12T05:59:35.195Z,99.99
2022-10-12T06:00:35.169Z,99.99
2022-10-12T06:01:35.264Z,99.99
2022-10-12T06:02:35.368Z,99.99
2022-10-12T06:03:35.415Z,99.99
2022-10-12T06:04:35.150Z,99.99
2022-10-12T06:05:35.176Z,99.99
2022-10-12T06:06:35.160Z,99.99
2022-10-12T06:07:35.157Z,99.92
2022-10-12T06:08:35.157Z,99.99
2022-10-12T06:09:35.209Z,99.92
2022-10-12T06:10:35.288Z,99.35
2022-10-12T06:11:36.474Z,98.83
2022-10-12T06:12:35.318Z,98.45
2022-10-12T06:13:35.157Z,98.17
2022-10-12T06:14:35.125Z,97.78
2022-10-12T06:15:35.133Z,98.26
2022-10-12T06:16:35.139Z,97.78
2022-10-12T06:17:35.145Z,98.26
2022-10-12T06:18:35.137Z,97.69
2022-10-12T06:19:35.134Z,97.69
2022-10-12T06:20:35.108Z,97.60
2022-10-12T06:21:35.164Z,97.60
2022-10-12T06:22:35.420Z,97.60
2022-10-12T06:23:35.126Z,98.26
2022-10-12T06:24:35.101Z,98.07
2022-10-12T06:25:35.119Z,98.83
2022-10-12T06:26:35.117Z,98.64
2022-10-12T06:27:35.110Z,99.02
2022-10-12T06:28:35.157Z,99.30
2022-10-12T06:29:35.158Z,99.30
2022-10-12T06:30:35.118Z,99.21
2022-10-12T06:31:35.104Z,99.40
2022-10-12T06:32:35.386Z,99.97
2022-10-12T06:33:35.091Z,99.99
2022-10-12T06:34:35.098Z,99.99
2022-10-12T06:35:35.109Z,99.99
2022-10-12T06:36:35.077Z,99.99
2022-10-12T06:37:49.566Z,99.99
2022-10-12T06:38:35.078Z,99.99
2022-10-12T06:39:35.081Z,99.99
2022-10-12T06:40:35.087Z,99.99
2022-10-12T06:41:35.077Z,99.99
2022-10-12T06:42:35.308Z,99.99
2022-10-12T06:43:35.069Z,99.99
2022-10-12T06:44:35.060Z,99.99
2022-10-12T06:45:35.071Z,99.99
2022-10-12T06:46:35.079Z,99.99
2022-10-12T06:47:35.053Z,99.99
2022-10-12T06:48:35.051Z,99.99
2022-10-12T06:49:35.049Z,99.99
2022-10-12T06:50:35.054Z,99.99
2022-10-12T06:51:35.116Z,99.99
2022-10-12T06:52:35.138Z,99.99
2022-10-12T06:53:35.066Z,99.98
2022-10-12T06:54:35.045Z,99.74
2022-10-12T06:55:35.044Z,98.98
2022-10-12T06:56:35.044Z,98.46
2022-10-12T06:57:35.042Z,98.27
2022-10-12T06:58:35.040Z,97.22
2022-10-12T06:59:35.040Z,96.51
2022-10-12T07:00:35.037Z,95.94
2022-10-12T07:01:35.123Z,96.03
2022-10-12T07:02:35.134Z,95.12
2022-10-12T07:03:35.032Z,94.37
2022-10-12T07:04:35.019Z,92.88
2022-10-12T07:05:35.038Z,92.32
2022-10-12T07:06:35.048Z,91.36
2022-10-12T07:07:35.015Z,91.41
2022-10-12T07:08:35.022Z,90.36
2022-10-12T07:09:35.021Z,90.21
2022-10-12T07:10:35.009Z,89.35
2022-10-12T07:11:35.039Z,88.54
2022-10-12T07:12:35.211Z,87.77
2022-10-12T07:13:35.034Z,87.20
2022-10-12T07:14:35.013Z,86.05
2022-10-12T07:15:34.999Z,85.10
2022-10-12T07:16:35.009Z,85.62
2022-10-12T07:17:35.128Z,85.81
2022-10-12T07:18:35.027Z,84.80
2022-10-12T07:19:35.008Z,85.38
2022-10-12T07:20:35.008Z,85.18
2022-10-12T07:21:34.996Z,84.80
2022-10-12T07:22:35.001Z,84.23
2022-10-12T07:23:35.008Z,83.40
2022-10-12T07:24:35.007Z,83.22
2022-10-12T07:25:35.002Z,82.93
2022-10-12T07:26:35.000Z,82.11
2022-10-12T07:27:35.085Z,82.30
2022-10-12T07:28:35.026Z,81.82
2022-10-12T07:29:35.043Z,81.77
2022-10-12T07:30:34.996Z,81.38
2022-10-12T07:31:34.987Z,80.81
2022-10-12T07:32:34.987Z,79.75
2022-10-12T07:33:34.990Z,79.89
2022-10-12T07:34:35.003Z,79.41
2022-10-12T07:35:35.100Z,79.13
2022-10-12T07:36:57.524Z,79.13
2022-10-12T07:37:34.993Z,78.30
2022-10-12T07:38:35.004Z,78.69
2022-10-12T07:39:34.990Z,77.82
2022-10-12T07:40:34.978Z,78.02
2022-10-12T07:41:34.996Z,78.20
2022-10-12T07:42:34.992Z,78.25
2022-10-12T07:43:34.990Z,77.67
2022-10-12T07:44:34.984Z,76.90
2022-10-12T07:45:34.982Z,77.48
2022-10-12T07:46:35.011Z,76.71
2022-10-12T07:47:35.007Z,76.75
2022-10-12T07:48:34.986Z,75.56
2022-10-12T07:49:34.991Z,74.41
2022-10-12T07:50:34.994Z,74.79
2022-10-12T07:51:34.982Z,74.89
2022-10-12T07:52:34.996Z,75.27
2022-10-12T07:53:35.001Z,76.00
2022-10-12T07:54:34.999Z,75.81
2022-10-12T07:55:35.006Z,76.57
2022-10-12T07:56:35.014Z,77.15
2022-10-12T07:57:35.011Z,77.34
2022-10-12T07:58:34.995Z,77.25
2022-10-12T07:59:35.030Z,77.44
2022-10-12T08:00:35.020Z,77.76
2022-10-12T08:01:35.054Z,77.09
2022-10-12T08:02:35.020Z,77.76
2022-10-12T08:03:34.996Z,77.42
2022-10-12T08:04:35.008Z,76.75
2022-10-12T08:05:35.008Z,76.07
2022-10-12T08:06:35.007Z,76.07
2022-10-12T08:07:35.020Z,76.07
2022-10-12T08:08:35.033Z,76.02
2022-10-12T08:09:34.998Z,76.02
2022-10-12T08:10:35.016Z,75.25
2022-10-12T08:11:35.017Z,74.58
2022-10-12T08:12:35.026Z,74.01
2022-10-12T08:13:35.021Z,74.13
2022-10-12T08:14:35.033Z,74.52
2022-10-12T08:15:35.031Z,73.66
2022-10-12T08:16:35.043Z,73.75
2022-10-12T08:17:35.016Z,73.43
2022-10-12T08:18:35.044Z,73.62
2022-10-12T08:19:35.507Z,74.48
2022-10-12T08:20:35.045Z,74.48
2022-10-12T08:21:35.051Z,74.06
2022-10-12T08:22:35.050Z,75.18
2022-10-12T08:23:35.040Z,76.14
2022-10-12T08:24:35.035Z,76.94
2022-10-12T08:25:35.042Z,76.32
2022-10-12T08:26:35.060Z,75.95
2022-10-12T08:27:35.172Z,75.89
2022-10-12T08:28:35.105Z,75.98
2022-10-12T08:29:35.075Z,76.46
2022-10-12T08:30:35.053Z,76.37
2022-10-12T08:31:35.096Z,76.46
2022-10-12T08:32:35.056Z,76.27
2022-10-12T08:33:35.060Z,76.46
2022-10-12T08:34:35.071Z,75.79
2022-10-12T08:35:35.071Z,75.82
2022-10-12T08:36:35.074Z,74.96
2022-10-12T08:37:35.081Z,75.45
2022-10-12T08:38:35.088Z,74.19
2022-10-12T08:39:35.073Z,74.01
2022-10-12T08:40:35.089Z,73.85
2022-10-12T08:41:35.088Z,73.08
2022-10-12T08:42:35.093Z,73.37
2022-10-12T08:43:35.104Z,73.56
2022-10-12T08:44:35.122Z,73.46
2022-10-12T08:45:35.113Z,73.69
2022-10-12T08:46:35.117Z,72.92
2022-10-12T08:47:35.099Z,72.25
2022-10-12T08:48:35.110Z,72.16
2022-10-12T08:49:35.136Z,71.96
2022-10-12T08:50:35.125Z,72.06
2022-10-12T08:51:35.123Z,71.91
2022-10-12T08:52:35.130Z,71.14
2022-10-12T08:53:35.138Z,70.17
2022-10-12T08:54:35.134Z,70.01
2022-10-12T08:55:35.153Z,69.53
2022-10-12T08:56:35.155Z,68.67
2022-10-12T08:57:35.141Z,68.96
2022-10-12T08:58:35.170Z,68.09
2022-10-12T08:59:35.165Z,68.29
2022-10-12T09:00:35.166Z,67.90
2022-10-12T09:01:35.202Z,68.29
2022-10-12T09:02:35.169Z,68.76
2022-10-12T09:03:35.181Z,68.80
2022-10-12T09:04:35.187Z,68.70
2022-10-12T09:05:35.192Z,69.09
2022-10-12T09:06:35.221Z,69.31
2022-10-12T09:07:35.237Z,67.68
2022-10-12T09:08:35.198Z,67.42
2022-10-12T09:09:37.046Z,66.36
2022-10-12T09:10:35.278Z,65.88
2022-10-12T09:11:35.218Z,65.78
2022-10-12T09:12:35.236Z,64.63
2022-10-12T09:13:35.238Z,64.02
2022-10-12T09:14:35.238Z,64.50
2022-10-12T09:15:35.255Z,64.31
2022-10-12T09:16:35.247Z,65.20
2022-10-12T09:17:35.254Z,65.40
2022-10-12T09:18:40.426Z,65.20
2022-10-12T09:19:35.275Z,65.11
2022-10-12T09:20:35.277Z,64.92
2022-10-12T09:21:35.303Z,64.63
2022-10-12T09:22:35.285Z,64.53
2022-10-12T09:23:35.299Z,65.11
2022-10-12T09:24:35.310Z,64.82
2022-10-12T09:25:35.317Z,64.59
2022-10-12T09:26:35.315Z,64.21
2022-10-12T09:27:35.309Z,64.76
2022-10-12T09:28:35.939Z,65.91
2022-10-12T09:29:35.337Z,65.78
2022-10-12T09:30:35.363Z,66.84
2022-10-12T09:31:35.350Z,67.61
2022-10-12T09:32:35.343Z,67.38
2022-10-12T09:33:35.361Z,68.06
2022-10-12T09:34:35.352Z,68.44
2022-10-12T09:35:35.368Z,68.44
2022-10-12T09:36:35.375Z,69.02
2022-10-12T09:37:35.369Z,68.60
2022-10-12T09:38:35.378Z,68.89
2022-10-12T09:39:35.385Z,69.95
2022-10-12T09:40:35.408Z,69.18
2022-10-12T09:41:35.405Z,69.24
2022-10-12T09:42:35.415Z,69.53
2022-10-12T09:43:35.408Z,69.72
2022-10-12T09:44:35.394Z,70.78
2022-10-12T09:45:35.427Z,70.26
2022-10-12T09:46:35.416Z,70.64
2022-10-12T09:47:35.438Z,70.64
2022-10-12T09:48:35.431Z,70.26
2022-10-12T09:49:35.433Z,70.45
2022-10-12T09:50:35.426Z,70.26
2022-10-12T09:51:35.475Z,71.12
2022-10-12T09:52:35.439Z,70.93
2022-10-12T09:53:35.453Z,71.51
2022-10-12T09:54:35.558Z,71.89
2022-10-12T09:55:35.510Z,71.95
2022-10-12T09:56:35.449Z,72.33
2022-10-12T09:57:35.480Z,72.24
2022-10-12T09:58:35.445Z,71.66
2022-10-12T09:59:35.451Z,71.57
2022-10-12T10:00:35.466Z,71.66
2022-10-12T10:01:35.505Z,71.76
2022-10-12T10:02:35.480Z,72.30
2022-10-12T10:03:43.919Z,72.30
2022-10-12T10:04:43.935Z,72.39
2022-10-12T10:05:43.089Z,72.88
2022-10-12T10:06:45.988Z,72.88
2022-10-12T10:07:44.519Z,73.07
2022-10-12T10:08:43.538Z,73.45
2022-10-12T10:09:35.489Z,74.16
2022-10-12T10:10:43.031Z,73.58
2022-10-12T10:11:43.598Z,72.72
2022-10-12T10:12:43.617Z,72.72
2022-10-12T10:13:43.643Z,71.37
2022-10-12T10:14:44.164Z,71.12
2022-10-12T10:15:43.689Z,71.12
2022-10-12T10:16:43.090Z,70.26
2022-10-12T10:17:45.719Z,69.68
2022-10-12T10:18:43.741Z,69.81
2022-10-12T10:19:43.777Z,69.72
2022-10-12T10:20:43.791Z,69.53
2022-10-12T10:21:43.810Z,68.60
2022-10-12T10:22:43.169Z,68.44
2022-10-12T10:23:43.853Z,67.38
2022-10-12T10:24:43.892Z,67.61
2022-10-12T10:25:43.958Z,67.51
2022-10-12T10:26:44.960Z,65.72
2022-10-12T10:27:44.060Z,65.24
2022-10-12T10:28:44.135Z,64.98
2022-10-12T10:29:43.129Z,64.59
2022-10-12T10:30:45.185Z,63.54
2022-10-12T10:31:44.974Z,64.12
2022-10-12T10:32:43.578Z,63.73
2022-10-12T10:33:43.104Z,64.02
2022-10-12T10:34:35.565Z,63.22
2022-10-12T10:35:35.539Z,63.70
2022-10-12T10:36:35.548Z,63.79
2022-10-12T10:37:35.581Z,64.28
2022-10-12T10:38:35.576Z,63.89
2022-10-12T10:39:35.564Z,63.99
2022-10-12T10:40:35.572Z,64.37
2022-10-12T10:41:35.618Z,64.43
2022-10-12T10:42:35.587Z,64.73
2022-10-12T10:43:35.567Z,66.23
2022-10-12T10:44:35.621Z,66.71
2022-10-12T10:45:35.614Z,66.61
2022-10-12T10:46:35.580Z,66.52
2022-10-12T10:47:35.579Z,66.33
2022-10-12T10:48:35.595Z,66.65
2022-10-12T10:49:35.595Z,65.97
2022-10-12T10:50:35.622Z,65.88
2022-10-12T10:51:35.604Z,65.05
2022-10-12T10:52:35.600Z,63.89
2022-10-12T10:53:35.631Z,62.93
2022-10-12T10:54:35.621Z,63.25
2022-10-12T10:55:35.609Z,62.77
2022-10-12T10:56:35.615Z,62.22
2022-10-12T10:57:35.629Z,61.45
2022-10-12T10:58:35.633Z,61.16
2022-10-12T10:59:35.649Z,61.16
2022-10-12T11:00:40.580Z,60.84
2022-10-12T11:01:35.757Z,61.61
2022-10-12T11:02:35.643Z,61.42
2022-10-12T11:03:35.656Z,61.25
2022-10-12T11:04:35.652Z,60.97
2022-10-12T11:05:35.672Z,61.07
2022-10-12T11:06:35.673Z,61.10
2022-10-12T11:07:35.678Z,61.29
2022-10-12T11:08:35.682Z,60.61
2022-10-12T11:09:43.226Z,60.03
2022-10-12T11:10:35.685Z,59.45
2022-10-12T11:11:35.694Z,59.87
2022-10-12T11:12:35.699Z,58.81
2022-10-12T11:13:35.694Z,58.72
2022-10-12T11:14:35.711Z,58.62
2022-10-12T11:15:35.723Z,58.36
2022-10-12T11:16:35.724Z,58.26
2022-10-12T11:17:35.739Z,58.10
2022-10-12T11:18:35.731Z,57.64
2022-10-12T11:19:35.735Z,57.77
2022-10-12T11:20:35.743Z,56.63
2022-10-12T11:21:35.736Z,55.26
2022-10-12T11:22:35.752Z,55.71
2022-10-12T11:23:35.751Z,55.81
2022-10-12T11:24:35.757Z,56.00
2022-10-12T11:25:35.810Z,55.45
2022-10-12T11:26:35.763Z,54.90
2022-10-12T11:27:35.785Z,55.21
2022-10-12T11:28:35.871Z,54.47
2022-10-12T11:29:35.779Z,53.41
2022-10-12T11:30:35.792Z,53.41
2022-10-12T11:31:35.820Z,52.41
2022-10-12T11:32:35.791Z,52.41
2022-10-12T11:33:35.816Z,53.35
2022-10-12T11:34:35.863Z,53.06
2022-10-12T11:35:35.825Z,53.81
2022-10-12T11:36:35.814Z,53.85
2022-10-12T11:37:35.844Z,54.82
2022-10-12T11:38:35.829Z,55.78
2022-10-12T11:39:35.841Z,55.24
2022-10-12T11:41:36.434Z,57.05
2022-10-12T11:42:38.873Z,57.57
2022-10-12T11:43:35.856Z,59.49
2022-10-12T11:44:35.879Z,60.14
2022-10-12T11:45:35.898Z,60.00
2022-10-12T11:46:35.868Z,58.59
2022-10-12T11:47:35.862Z,58.45
2022-10-12T11:48:35.866Z,56.43
2022-10-12T11:49:35.877Z,56.40
2022-10-12T11:50:35.883Z,56.98
2022-10-12T11:51:35.910Z,56.72
2022-10-12T11:52:35.873Z,55.88
2022-10-12T11:53:35.904Z,55.04
2022-10-12T11:54:35.890Z,53.61
2022-10-12T11:55:35.896Z,53.33
2022-10-12T11:56:35.901Z,53.03
2022-10-12T11:57:35.908Z,52.33
2022-10-12T11:58:59.206Z,53.88
2022-10-12T11:59:35.927Z,53.85
2022-10-12T12:00:35.903Z,53.95
2022-10-12T12:01:35.923Z,54.40
2022-10-12T12:02:35.920Z,54.02
2022-10-12T12:03:36.037Z,54.98
2022-10-12T12:04:42.170Z,54.50
2022-10-12T12:05:35.920Z,54.60
2022-10-12T12:06:35.923Z,55.15
2022-10-12T12:07:35.950Z,55.54
2022-10-12T12:08:35.928Z,56.69
2022-10-12T12:09:35.969Z,56.95
2022-10-12T12:10:35.951Z,56.66
2022-10-12T12:11:35.955Z,57.21
2022-10-12T12:12:35.950Z,58.53
2022-10-12T12:13:35.960Z,58.53
2022-10-12T12:14:35.954Z,59.17
2022-10-12T12:15:35.973Z,59.56
2022-10-12T12:16:35.953Z,59.92
2022-10-12T12:17:35.963Z,60.49
2022-10-12T12:18:35.960Z,61.36
2022-10-12T12:19:35.973Z,61.74
2022-10-12T12:20:35.986Z,61.74
2022-10-12T12:21:35.985Z,61.46
2022-10-12T12:22:35.984Z,61.52
2022-10-12T12:23:35.990Z,61.04
2022-10-12T12:24:38.592Z,61.55
2022-10-12T12:25:36.021Z,61.55
2022-10-12T12:26:35.992Z,61.74
2022-10-12T12:27:35.988Z,61.65
2022-10-12T12:28:36.052Z,61.74
2022-10-12T12:29:35.995Z,61.26
2022-10-12T12:30:35.998Z,61.16
2022-10-12T12:31:36.016Z,61.55
2022-10-12T12:32:35.996Z,61.74
2022-10-12T12:33:36.001Z,62.32
2022-10-12T12:34:36.003Z,62.58
2022-10-12T12:35:36.039Z,61.91
2022-10-12T12:36:36.028Z,61.81
2022-10-12T12:37:36.038Z,62.68
2022-10-12T12:38:36.013Z,62.77
2022-10-12T12:39:36.044Z,62.87
2022-10-12T12:40:36.026Z,63.06
2022-10-12T12:41:36.034Z,63.35
2022-10-12T12:42:36.033Z,62.10
2022-10-12T12:43:36.044Z,61.14
2022-10-12T12:44:36.027Z,61.23
2022-10-12T12:45:36.050Z,62.48
2022-10-12T12:46:36.056Z,62.77
2022-10-12T12:47:51.310Z,62.38
2022-10-12T12:48:36.049Z,62.48
2022-10-12T12:49:36.051Z,62.58
2022-10-12T12:50:36.054Z,62.58
2022-10-12T12:51:36.054Z,62.38
2022-10-12T12:52:36.066Z,62.96
2022-10-12T12:53:36.060Z,62.29
2022-10-12T12:54:36.048Z,62.48